Time;durP1;ratioP1;P1;durP2;ratioP2;P2;SDS_P1;SDS_P2;PMS_P1;PMS_P2;Temp;Humidity;BMP_temperature;BMP_pressure;BME280_temperature;BME280_humidity;BME280_pressure;Samples;Min_cycle;Max_cycle;Signal;HPM_P1;HPM_P2
2020/12/30 00:01:07;;;;;;;25.20;16.20;;;3.70;99.90;;;;;;5014062;28;20228;-63
2020/12/30 00:03:35;;;;;;;26.13;16.23;;;3.80;99.90;;;;;;5011738;28;20231;-63
2020/12/30 00:06:02;;;;;;;25.07;16.03;;;3.80;99.90;;;;;;5012339;28;20299;-63
2020/12/30 00:08:28;;;;;;;25.13;17.03;;;3.90;99.90;;;;;;5015223;28;20208;-63
2020/12/30 00:10:55;;;;;;;24.77;16.50;;;3.90;99.90;;;;;;5012093;28;20702;-65
2020/12/30 00:13:22;;;;;;;22.90;15.80;;;3.90;99.90;;;;;;5014713;28;21230;-62
2020/12/30 00:15:49;;;;;;;22.50;15.80;;;3.90;99.90;;;;;;5009732;28;20214;-62
2020/12/30 00:18:15;;;;;;;23.53;13.73;;;4.00;99.90;;;;;;5011769;28;20628;-64
2020/12/30 00:20:42;;;;;;;20.37;13.57;;;4.00;99.90;;;;;;5011892;28;21585;-64
2020/12/30 00:23:08;;;;;;;17.20;12.70;;;4.00;99.90;;;;;;5014047;28;20209;-64
2020/12/30 00:25:35;;;;;;;17.37;11.53;;;4.00;99.90;;;;;;5011290;28;20320;-66
2020/12/30 00:28:01;;;;;;;18.70;12.03;;;4.00;99.90;;;;;;5010515;28;21099;-65
2020/12/30 00:30:28;;;;;;;17.90;13.27;;;3.80;99.90;;;;;;5011495;28;20251;-63
2020/12/30 00:32:55;;;;;;;17.37;13.43;;;3.80;99.90;;;;;;5008028;28;20202;-63
2020/12/30 00:35:22;;;;;;;15.20;11.43;;;3.80;99.90;;;;;;5009994;28;20211;-63
2020/12/30 00:37:48;;;;;;;15.67;11.40;;;3.80;99.90;;;;;;5011970;28;20916;-62
2020/12/30 00:40:15;;;;;;;15.13;10.27;;;3.80;99.90;;;;;;5011805;28;20196;-64
2020/12/30 00:42:41;;;;;;;13.00;9.90;;;3.90;99.90;;;;;;5012421;28;20204;-62
2020/12/30 00:45:10;;;;;;;14.40;9.70;;;3.90;99.90;;;;;;5010191;28;20238;-63
2020/12/30 00:47:36;;;;;;;13.37;9.20;;;4.00;99.90;;;;;;5009551;28;20262;-63
2020/12/30 00:50:05;;;;;;;16.10;9.67;;;4.00;99.90;;;;;;5011997;28;20211;-62
2020/12/30 00:52:31;;;;;;;18.03;10.90;;;4.10;99.90;;;;;;5007931;28;20262;-64
2020/12/30 00:54:58;;;;;;;15.97;10.67;;;4.10;99.90;;;;;;5012623;28;20196;-64
2020/12/30 00:57:24;;;;;;;16.27;10.03;;;4.10;99.90;;;;;;5010870;28;20200;-63
2020/12/30 00:59:51;;;;;;;13.77;10.47;;;4.00;99.90;;;;;;5012792;28;20224;-64
2020/12/30 01:02:17;;;;;;;16.63;10.20;;;3.90;99.90;;;;;;5017737;28;20193;-63
2020/12/30 01:04:44;;;;;;;17.43;10.03;;;3.80;99.90;;;;;;5016373;28;20583;-64
2020/12/30 01:07:12;;;;;;;18.37;10.43;;;3.80;99.90;;;;;;5010320;28;21710;-62
2020/12/30 01:09:39;;;;;;;16.73;10.33;;;3.80;99.90;;;;;;5009859;28;20207;-63
2020/12/30 01:12:06;;;;;;;13.77;9.40;;;3.80;99.90;;;;;;5009639;28;20215;-64
2020/12/30 01:14:33;;;;;;;17.40;10.20;;;3.70;99.90;;;;;;5010484;28;20254;-65
2020/12/30 01:16:59;;;;;;;15.63;10.40;;;3.80;99.90;;;;;;5009488;28;20225;-64
2020/12/30 01:19:26;;;;;;;14.87;10.03;;;3.70;99.90;;;;;;5009063;28;20615;-63
2020/12/30 01:21:52;;;;;;;14.90;10.17;;;3.70;99.90;;;;;;5012881;28;20200;-63
2020/12/30 01:24:19;;;;;;;13.17;9.70;;;3.80;99.90;;;;;;5010902;28;20281;-64
2020/12/30 01:26:47;;;;;;;13.93;10.20;;;3.70;99.90;;;;;;5011067;28;20239;-64
2020/12/30 01:29:13;;;;;;;15.57;10.10;;;3.80;99.90;;;;;;5009872;28;20204;-64
2020/12/30 01:31:40;;;;;;;14.67;10.43;;;3.80;99.90;;;;;;5005846;28;20212;-64
2020/12/30 01:34:07;;;;;;;16.00;10.20;;;3.80;99.90;;;;;;5010984;28;20227;-63
2020/12/30 01:36:36;;;;;;;14.83;10.23;;;3.90;99.90;;;;;;5009530;28;20200;-63
2020/12/30 01:39:04;;;;;;;14.53;9.70;;;3.90;99.90;;;;;;5008721;28;20219;-63
2020/12/30 01:41:31;;;;;;;14.43;10.20;;;3.90;99.90;;;;;;5009656;28;20232;-64
2020/12/30 01:44:04;;;;;;;15.33;9.90;;;4.00;99.90;;;;;;5007693;28;20223;-64
2020/12/30 01:46:36;;;;;;;15.37;9.37;;;4.00;99.90;;;;;;5006908;28;20235;-65
2020/12/30 01:49:04;;;;;;;16.00;9.40;;;4.10;99.90;;;;;;5009188;28;20833;-65
2020/12/30 01:51:31;;;;;;;14.10;9.73;;;4.20;99.90;;;;;;5012207;28;20236;-64
2020/12/30 01:53:59;;;;;;;16.13;9.73;;;4.30;99.90;;;;;;5014563;28;20209;-64
2020/12/30 01:56:29;;;;;;;15.23;10.40;;;4.30;99.90;;;;;;5014063;28;20755;-64
2020/12/30 01:58:56;;;;;;;16.93;11.50;;;4.30;99.90;;;;;;5019207;28;20196;-64
2020/12/30 02:01:26;;;;;;;16.37;11.90;;;4.30;99.90;;;;;;5016347;28;20232;-64
2020/12/30 02:03:55;;;;;;;14.30;10.70;;;4.30;99.90;;;;;;5015451;28;20216;-65
2020/12/30 02:06:22;;;;;;;15.67;10.97;;;4.30;99.90;;;;;;5008340;28;20200;-64
2020/12/30 02:08:50;;;;;;;15.73;10.20;;;4.30;99.90;;;;;;5006494;28;20629;-64
2020/12/30 02:11:16;;;;;;;14.47;10.80;;;4.30;99.90;;;;;;5010119;28;20204;-64
2020/12/30 02:13:43;;;;;;;14.63;10.53;;;4.30;99.90;;;;;;5008917;28;20193;-65
2020/12/30 02:16:10;;;;;;;16.90;10.93;;;4.30;99.90;;;;;;5007716;28;20204;-64
2020/12/30 02:18:37;;;;;;;16.57;11.20;;;4.30;99.90;;;;;;5007138;28;20205;-64
2020/12/30 02:21:04;;;;;;;14.57;11.17;;;4.30;99.90;;;;;;5010122;28;20200;-63
2020/12/30 02:23:33;;;;;;;14.50;10.53;;;4.30;99.90;;;;;;5012553;28;20232;-66
2020/12/30 02:26:00;;;;;;;17.80;11.30;;;4.30;99.90;;;;;;5009395;28;20251;-66
2020/12/30 02:28:27;;;;;;;16.97;10.47;;;4.30;99.90;;;;;;5012799;28;20251;-65
2020/12/30 02:30:54;;;;;;;13.87;9.10;;;4.30;99.90;;;;;;5008789;28;20207;-67
2020/12/30 02:33:21;;;;;;;10.10;6.67;;;4.30;99.90;;;;;;5008604;28;20250;-67
2020/12/30 02:35:47;;;;;;;7.70;5.23;;;4.30;99.90;;;;;;5008548;28;20261;-67
2020/12/30 02:38:14;;;;;;;12.00;7.00;;;4.20;99.90;;;;;;5007851;28;20205;-67
2020/12/30 02:40:40;;;;;;;15.90;9.47;;;4.20;99.90;;;;;;5012620;28;20681;-67
2020/12/30 02:43:07;;;;;;;12.80;9.87;;;4.10;99.90;;;;;;5011529;28;21856;-67
2020/12/30 02:45:34;;;;;;;16.33;11.53;;;4.20;99.90;;;;;;5012470;28;22505;-66
2020/12/30 02:48:00;;;;;;;24.97;15.77;;;4.20;99.90;;;;;;5013094;28;20234;-67
2020/12/30 02:50:27;;;;;;;18.87;13.50;;;4.30;99.90;;;;;;5018464;28;20204;-67
2020/12/30 02:52:53;;;;;;;18.33;10.37;;;4.30;99.90;;;;;;5013209;28;20219;-68
2020/12/30 02:55:20;;;;;;;13.47;6.43;;;4.30;99.90;;;;;;5011945;28;20289;-68
2020/12/30 02:57:46;;;;;;;7.87;5.10;;;4.30;99.90;;;;;;5018011;28;20214;-68
2020/12/30 03:00:13;;;;;;;6.20;3.57;;;4.30;99.90;;;;;;5021273;28;20218;-69
2020/12/30 03:02:40;;;;;;;5.07;3.33;;;4.20;99.90;;;;;;5013161;28;20201;-68
2020/12/30 03:05:06;;;;;;;3.90;2.90;;;4.20;99.90;;;;;;5015345;28;20259;-68
2020/12/30 03:07:33;;;;;;;5.37;2.03;;;4.20;99.90;;;;;;5012151;28;20212;-68
2020/12/30 03:09:59;;;;;;;2.87;2.17;;;4.20;99.90;;;;;;5012922;28;20659;-68
2020/12/30 03:12:26;;;;;;;3.93;2.33;;;4.20;99.90;;;;;;5010842;28;20204;-68
2020/12/30 03:14:52;;;;;;;3.23;2.93;;;4.20;99.90;;;;;;5008383;28;20200;-68
2020/12/30 03:17:20;;;;;;;3.40;2.40;;;4.20;99.90;;;;;;5012813;28;20196;-67
2020/12/30 03:19:46;;;;;;;3.90;2.30;;;4.20;99.90;;;;;;5007870;28;20241;-68
2020/12/30 03:22:12;;;;;;;3.27;2.40;;;4.30;99.90;;;;;;5006965;28;20204;-68
2020/12/30 03:24:39;;;;;;;4.13;2.47;;;4.20;99.90;;;;;;5008685;28;20224;-68
2020/12/30 03:27:05;;;;;;;5.87;2.67;;;4.20;99.90;;;;;;5011352;28;20262;-67
2020/12/30 03:29:32;;;;;;;5.97;2.57;;;4.30;99.90;;;;;;5011720;28;20553;-68
2020/12/30 03:31:58;;;;;;;4.13;2.60;;;4.30;99.90;;;;;;5011349;28;20670;-67
2020/12/30 03:34:26;;;;;;;13.17;9.03;;;4.30;99.90;;;;;;5014969;28;20200;-68
2020/12/30 03:36:52;;;;;;;12.20;8.63;;;4.30;99.90;;;;;;5014028;28;20223;-67
2020/12/30 03:39:19;;;;;;;20.47;12.73;;;4.30;99.90;;;;;;5013868;28;20661;-67
2020/12/30 03:41:45;;;;;;;24.83;15.23;;;4.20;99.90;;;;;;5013326;28;20201;-66
2020/12/30 03:44:12;;;;;;;23.53;15.00;;;4.20;99.90;;;;;;5007946;28;20270;-67
2020/12/30 03:46:38;;;;;;;26.07;16.47;;;4.20;99.90;;;;;;5010633;28;20228;-67
2020/12/30 03:49:05;;;;;;;24.43;16.50;;;4.20;99.90;;;;;;5009715;28;20204;-68
2020/12/30 03:51:32;;;;;;;22.57;15.87;;;4.20;99.90;;;;;;5020037;28;20199;-67
2020/12/30 03:53:58;;;;;;;26.50;17.90;;;4.10;99.90;;;;;;5020093;28;20199;-68
2020/12/30 03:56:25;;;;;;;28.20;17.67;;;4.00;99.90;;;;;;5020689;28;20232;-65
2020/12/30 03:58:51;;;;;;;28.13;17.03;;;4.00;99.90;;;;;;5018917;28;20208;-67
2020/12/30 04:01:18;;;;;;;26.43;18.07;;;4.00;99.90;;;;;;5021137;28;20197;-66
2020/12/30 04:03:44;;;;;;;24.77;16.17;;;3.90;99.90;;;;;;5018798;28;20221;-67
2020/12/30 04:06:11;;;;;;;25.60;16.37;;;3.80;99.90;;;;;;5020578;28;20580;-67
2020/12/30 04:08:38;;;;;;;23.57;15.67;;;3.70;99.90;;;;;;5020246;28;20201;-67
2020/12/30 04:11:04;;;;;;;22.40;14.80;;;3.60;99.90;;;;;;5017147;28;20712;-67
2020/12/30 04:13:31;;;;;;;25.63;15.90;;;3.50;99.90;;;;;;5022210;28;20205;-67
2020/12/30 04:15:57;;;;;;;23.80;15.83;;;3.40;99.90;;;;;;5019938;28;20200;-67
2020/12/30 04:18:24;;;;;;;19.97;13.87;;;3.30;99.90;;;;;;5018091;28;20192;-67
2020/12/30 04:20:50;;;;;;;20.47;12.13;;;3.30;99.90;;;;;;5019490;28;20310;-66
2020/12/30 04:23:17;;;;;;;19.00;11.00;;;3.40;99.90;;;;;;5017910;28;20204;-66
2020/12/30 04:25:47;;;;;;;15.53;8.23;;;3.40;99.90;;;;;;5019291;28;20235;-67
2020/12/30 04:28:14;;;;;;;14.70;7.13;;;3.60;99.90;;;;;;5018460;28;20208;-66
2020/12/30 04:30:41;;;;;;;12.20;6.70;;;3.60;99.90;;;;;;5019118;28;20301;-68
2020/12/30 04:33:08;;;;;;;15.77;7.47;;;3.60;99.90;;;;;;5017672;28;20254;-66
2020/12/30 04:35:34;;;;;;;13.60;7.40;;;3.60;99.90;;;;;;5018070;28;20205;-67
2020/12/30 04:38:01;;;;;;;16.57;8.17;;;3.70;99.90;;;;;;5018091;28;20200;-67
2020/12/30 04:40:28;;;;;;;17.17;9.00;;;3.70;99.90;;;;;;5018998;28;20203;-66
2020/12/30 04:42:59;;;;;;;15.83;8.00;;;3.60;99.90;;;;;;5017477;28;20204;-67
2020/12/30 04:45:26;;;;;;;12.17;8.63;;;3.60;99.90;;;;;;5019139;28;20499;-67
2020/12/30 04:47:55;;;;;;;21.17;9.07;;;3.40;99.90;;;;;;5016130;28;20200;-67
2020/12/30 04:50:23;;;;;;;17.60;8.13;;;3.40;99.90;;;;;;5019026;28;20273;-67
2020/12/30 04:52:50;;;;;;;16.30;7.40;;;3.40;99.90;;;;;;5018960;28;20197;-67
2020/12/30 04:55:24;;;;;;;16.67;7.77;;;3.40;99.90;;;;;;5016354;28;20215;-67
2020/12/30 04:58:04;;;;;;;13.00;7.63;;;3.40;99.90;;;;;;5018402;28;20197;-67
2020/12/30 05:00:32;;;;;;;21.13;8.97;;;3.50;99.90;;;;;;5019080;28;20219;-67
2020/12/30 05:03:05;;;;;;;19.43;8.87;;;3.70;99.90;;;;;;5018376;28;20203;-67
2020/12/30 05:05:33;;;;;;;18.97;9.00;;;3.80;99.90;;;;;;5016064;28;20215;-67
2020/12/30 05:07:59;;;;;;;15.50;9.03;;;3.90;99.90;;;;;;5013213;28;20192;-65
2020/12/30 05:10:26;;;;;;;13.77;7.83;;;3.90;99.90;;;;;;5011812;28;20208;-67
2020/12/30 05:12:53;;;;;;;14.00;8.07;;;3.80;99.90;;;;;;5015434;28;20670;-66
2020/12/30 05:15:21;;;;;;;14.13;7.77;;;3.80;99.90;;;;;;5010713;28;20257;-67
2020/12/30 05:17:47;;;;;;;15.90;7.67;;;3.70;99.90;;;;;;5011772;28;20207;-67
2020/12/30 05:20:14;;;;;;;16.03;8.00;;;3.60;99.90;;;;;;5008959;28;20223;-67
2020/12/30 05:22:40;;;;;;;15.70;7.83;;;3.60;99.90;;;;;;5011259;28;20205;-66
2020/12/30 05:25:07;;;;;;;15.27;7.47;;;3.60;99.90;;;;;;5008763;28;20961;-66
2020/12/30 05:27:36;;;;;;;13.80;7.63;;;3.60;99.90;;;;;;5012447;28;20731;-66
2020/12/30 05:30:04;;;;;;;16.00;8.97;;;3.70;99.90;;;;;;5010044;28;20292;-67
2020/12/30 05:32:35;;;;;;;10.50;6.97;;;3.70;99.90;;;;;;5007795;28;20207;-67
2020/12/30 05:35:03;;;;;;;15.37;7.57;;;3.90;99.90;;;;;;5011742;28;20192;-67
2020/12/30 05:37:31;;;;;;;11.97;7.03;;;4.00;99.90;;;;;;5017684;28;20204;-66
2020/12/30 05:39:58;;;;;;;12.43;6.50;;;4.10;99.90;;;;;;5015397;28;20235;-67
2020/12/30 05:42:24;;;;;;;10.27;6.33;;;4.20;99.90;;;;;;5016452;28;20205;-67
2020/12/30 05:44:52;;;;;;;12.93;7.00;;;4.30;99.90;;;;;;5013136;28;20727;-67
2020/12/30 05:47:20;;;;;;;12.80;7.30;;;4.40;99.90;;;;;;5016500;28;20600;-67
2020/12/30 05:49:48;;;;;;;12.67;7.07;;;4.50;99.90;;;;;;5016734;28;20204;-67
2020/12/30 05:52:17;;;;;;;14.87;7.90;;;4.60;99.90;;;;;;5016756;28;20251;-67
2020/12/30 05:54:55;;;;;;;15.57;8.97;;;4.70;99.90;;;;;;5008541;28;20253;-68
2020/12/30 05:57:27;;;;;;;19.70;10.27;;;4.70;99.90;;;;;;5009259;28;20294;-67
2020/12/30 05:59:58;;;;;;;14.70;10.00;;;4.80;99.90;;;;;;5008920;28;20207;-66
2020/12/30 06:02:29;;;;;;;14.87;9.83;;;4.80;99.90;;;;;;5013171;28;20201;-67
2020/12/30 06:05:08;;;;;;;17.27;10.43;;;4.80;99.90;;;;;;5009735;28;20782;-67
2020/12/30 06:07:37;;;;;;;15.40;10.50;;;4.80;99.90;;;;;;5014567;28;20196;-65
2020/12/30 06:10:05;;;;;;;17.20;11.83;;;4.80;99.90;;;;;;5013184;28;20331;-67
2020/12/30 06:12:38;;;;;;;17.13;12.97;;;4.80;99.90;;;;;;5007013;28;20197;-67
2020/12/30 06:15:05;;;;;;;23.10;13.67;;;4.90;99.90;;;;;;5006854;28;20203;-67
2020/12/30 06:17:32;;;;;;;23.30;12.70;;;4.80;99.90;;;;;;5007334;28;22252;-67
2020/12/30 06:19:59;;;;;;;21.17;14.03;;;4.90;99.90;;;;;;5009450;28;20203;-67
2020/12/30 06:22:27;;;;;;;23.37;14.40;;;4.80;99.90;;;;;;5009714;28;20200;-67
2020/12/30 06:24:55;;;;;;;21.17;14.07;;;4.80;99.90;;;;;;5008168;28;20228;-67
2020/12/30 06:27:23;;;;;;;18.70;13.03;;;4.80;99.90;;;;;;5010629;28;20196;-67
2020/12/30 06:29:52;;;;;;;20.23;12.90;;;4.80;99.90;;;;;;5008303;28;20218;-67
2020/12/30 06:32:30;;;;;;;17.40;12.23;;;4.80;99.90;;;;;;5008537;28;20396;-67
2020/12/30 06:34:57;;;;;;;19.90;13.47;;;4.80;99.90;;;;;;5008428;28;20204;-67
2020/12/30 06:37:33;;;;;;;19.63;13.50;;;4.80;99.90;;;;;;5009014;28;20208;-67
2020/12/30 06:40:28;;;;;;;19.33;13.23;;;4.70;99.90;;;;;;5008752;28;20298;-66
2020/12/30 06:42:56;;;;;;;22.57;14.30;;;4.80;99.90;;;;;;4959004;28;20205;-66
2020/12/30 06:45:51;;;;;;;20.17;14.50;;;4.80;99.90;;;;;;5006312;28;20240;-66
2020/12/30 06:48:21;;;;;;;16.97;13.17;;;4.70;99.90;;;;;;5009438;28;20204;-67
2020/12/30 06:50:50;;;;;;;17.67;13.33;;;4.80;99.90;;;;;;5008606;28;20201;-66
2020/12/30 06:53:32;;;;;;;17.60;13.20;;;4.80;99.90;;;;;;5008599;28;20211;-66
2020/12/30 06:56:03;;;;;;;17.93;12.17;;;4.80;99.90;;;;;;5008143;28;20216;-65
2020/12/30 06:58:46;;;;;;;15.50;12.00;;;4.80;99.90;;;;;;5009603;28;20211;-67
2020/12/30 07:01:14;;;;;;;16.20;12.47;;;4.80;99.90;;;;;;5007689;28;20227;-66
2020/12/30 07:03:40;;;;;;;14.50;11.70;;;4.90;99.90;;;;;;5008292;28;20228;-66
2020/12/30 07:06:30;;;;;;;15.60;11.03;;;4.90;99.90;;;;;;5008292;28;20205;-66
2020/12/30 07:08:59;;;;;;;16.23;11.90;;;4.90;99.90;;;;;;5009581;28;20205;-67
2020/12/30 07:11:48;;;;;;;14.77;11.17;;;4.90;99.90;;;;;;5012984;28;20677;-67
2020/12/30 07:14:16;;;;;;;16.17;11.53;;;4.90;99.90;;;;;;5006575;28;20631;-66
2020/12/30 07:16:47;;;;;;;14.97;9.90;;;4.90;99.90;;;;;;5006812;28;21106;-66
2020/12/30 07:19:16;;;;;;;11.83;9.57;;;4.90;99.90;;;;;;5016958;28;20196;-66
2020/12/30 07:21:53;;;;;;;14.43;9.20;;;4.90;99.90;;;;;;5017507;28;20204;-66
2020/12/30 07:24:22;;;;;;;11.07;8.70;;;5.00;99.90;;;;;;5018195;28;20212;-65
2020/12/30 07:26:50;;;;;;;13.77;8.93;;;5.00;99.90;;;;;;5020776;28;20632;-65
2020/12/30 07:29:17;;;;;;;10.17;8.50;;;4.90;99.90;;;;;;5019172;28;20235;-66
2020/12/30 07:31:48;;;;;;;11.07;8.37;;;5.00;99.90;;;;;;5017430;28;20192;-67
2020/12/30 07:34:19;;;;;;;11.23;8.40;;;5.00;99.90;;;;;;5020993;28;20231;-66
2020/12/30 07:36:47;;;;;;;13.47;8.10;;;5.00;99.90;;;;;;5018192;28;20200;-66
2020/12/30 07:39:15;;;;;;;13.83;8.77;;;5.00;99.90;;;;;;5018826;28;20669;-65
2020/12/30 07:41:45;;;;;;;9.40;7.73;;;5.10;99.90;;;;;;5015588;28;20211;-65
2020/12/30 07:44:13;;;;;;;11.33;7.40;;;5.10;99.90;;;;;;5013776;28;20212;-66
2020/12/30 07:46:41;;;;;;;7.30;6.60;;;5.10;99.90;;;;;;5015708;28;20307;-65
2020/12/30 07:49:13;;;;;;;7.73;6.83;;;5.10;99.90;;;;;;5009056;28;20210;-65
2020/12/30 07:51:50;;;;;;;9.87;7.63;;;5.10;99.90;;;;;;5012862;28;20965;-66
2020/12/30 07:54:18;;;;;;;9.67;7.23;;;5.10;99.90;;;;;;5016487;28;20205;-66
2020/12/30 07:56:45;;;;;;;13.03;7.97;;;5.10;99.90;;;;;;5020825;28;20208;-66
2020/12/30 07:59:19;;;;;;;9.93;7.77;;;5.10;99.90;;;;;;5019109;28;20226;-66
2020/12/30 08:01:53;;;;;;;8.53;7.30;;;5.10;99.90;;;;;;5018833;28;20293;-65
2020/12/30 08:04:20;;;;;;;10.57;7.30;;;5.10;99.90;;;;;;5019227;28;20307;-66
2020/12/30 08:06:47;;;;;;;11.13;6.63;;;5.10;99.90;;;;;;5019906;28;20208;-66
2020/12/30 08:09:14;;;;;;;12.03;7.03;;;5.10;99.90;;;;;;5018830;28;20223;-65
2020/12/30 08:11:52;;;;;;;12.20;6.73;;;5.10;99.90;;;;;;5019384;28;20274;-65
2020/12/30 08:14:21;;;;;;;9.00;6.47;;;5.10;99.90;;;;;;5020046;28;20196;-64
2020/12/30 08:16:51;;;;;;;10.20;7.40;;;5.10;99.90;;;;;;5018159;28;20197;-66
2020/12/30 08:19:48;;;;;;;9.00;6.90;;;5.10;99.90;;;;;;5014214;28;20197;-66
2020/12/30 08:22:16;;;;;;;9.63;6.27;;;5.20;99.90;;;;;;4929668;28;20489;-67
2020/12/30 08:24:44;;;;;;;6.77;5.13;;;5.20;99.90;;;;;;4991686;28;20231;-65
2020/12/30 08:27:13;;;;;;;10.77;5.53;;;5.20;99.90;;;;;;5010235;28;20232;-67
2020/12/30 08:29:42;;;;;;;7.03;5.20;;;5.20;99.90;;;;;;5031000;28;20204;-65
2020/12/30 08:32:16;;;;;;;7.97;4.80;;;5.30;99.90;;;;;;5033971;28;20196;-66
2020/12/30 08:34:48;;;;;;;7.10;4.50;;;5.30;99.90;;;;;;5024493;28;20196;-65
2020/12/30 08:37:23;;;;;;;8.00;6.03;;;5.30;99.90;;;;;;5020743;28;20200;-66
2020/12/30 08:39:57;;;;;;;6.67;5.90;;;5.30;99.90;;;;;;5027043;28;20221;-65
2020/12/30 08:42:52;;;;;;;8.30;5.00;;;5.40;99.90;;;;;;5029799;28;20212;-65
2020/12/30 08:45:21;;;;;;;9.67;4.00;;;5.40;99.90;;;;;;5029683;28;20228;-66
2020/12/30 08:47:53;;;;;;;8.20;3.90;;;5.40;99.90;;;;;;5014438;28;20192;-65
2020/12/30 08:50:21;;;;;;;8.33;4.10;;;5.40;99.90;;;;;;5021171;28;20283;-65
2020/12/30 08:52:47;;;;;;;6.33;3.60;;;5.40;99.90;;;;;;5020963;28;20205;-65
2020/12/30 08:55:15;;;;;;;5.07;4.03;;;5.40;99.90;;;;;;5018184;28;20319;-64
2020/12/30 08:57:46;;;;;;;5.13;3.60;;;5.40;99.90;;;;;;5018938;28;20204;-66
2020/12/30 09:00:18;;;;;;;7.73;4.00;;;5.40;99.90;;;;;;5019678;28;20200;-64
2020/12/30 09:02:45;;;;;;;6.10;4.67;;;5.40;99.90;;;;;;5020021;28;20196;-65
2020/12/30 09:05:12;;;;;;;7.57;4.57;;;5.40;99.90;;;;;;5029538;28;20216;-64
2020/12/30 09:07:39;;;;;;;10.00;4.90;;;5.40;99.90;;;;;;5024463;28;20200;-65
2020/12/30 09:10:09;;;;;;;10.27;5.70;;;5.40;99.90;;;;;;5018570;28;20212;-66
2020/12/30 09:12:36;;;;;;;8.93;5.20;;;5.40;99.90;;;;;;5018180;28;20196;-65
2020/12/30 09:15:04;;;;;;;4.83;3.90;;;5.50;99.90;;;;;;5019719;28;20204;-66
2020/12/30 09:17:30;;;;;;;6.80;3.50;;;5.50;99.90;;;;;;5019302;28;20270;-64
2020/12/30 09:20:13;;;;;;;5.93;3.40;;;5.50;99.90;;;;;;5019690;28;20209;-66
2020/12/30 09:22:41;;;;;;;5.73;3.90;;;5.50;99.90;;;;;;5016763;28;20320;-65
2020/12/30 09:25:08;;;;;;;8.47;4.40;;;5.50;99.90;;;;;;5024620;28;20251;-66
2020/12/30 09:27:36;;;;;;;5.40;3.30;;;5.50;99.90;;;;;;5018020;28;20209;-65
2020/12/30 09:30:08;;;;;;;5.13;3.00;;;5.50;99.90;;;;;;5019608;28;20200;-65
2020/12/30 09:32:35;;;;;;;3.83;2.87;;;5.50;99.90;;;;;;5018503;28;20205;-66
2020/12/30 09:35:02;;;;;;;5.03;2.93;;;5.50;99.90;;;;;;5022173;28;20200;-66
2020/12/30 09:37:29;;;;;;;6.43;2.60;;;5.50;99.90;;;;;;5019015;28;20200;-65
2020/12/30 09:40:10;;;;;;;8.90;3.00;;;5.50;99.90;;;;;;5017998;28;20204;-65
2020/12/30 09:42:38;;;;;;;5.27;2.60;;;5.50;99.90;;;;;;5019438;28;20239;-64
2020/12/30 09:45:08;;;;;;;5.43;2.80;;;5.50;99.90;;;;;;5025538;28;20689;-64
2020/12/30 09:47:34;;;;;;;6.40;2.50;;;5.60;99.90;;;;;;5024863;28;20662;-64
2020/12/30 09:50:02;;;;;;;5.67;2.70;;;5.60;99.90;;;;;;5022315;28;20584;-63
2020/12/30 09:52:34;;;;;;;5.20;2.33;;;5.60;99.90;;;;;;5016341;28;20200;-64
2020/12/30 09:55:00;;;;;;;5.53;2.90;;;5.60;99.90;;;;;;5019440;28;20192;-64
2020/12/30 09:57:27;;;;;;;5.20;2.53;;;5.60;99.90;;;;;;5017259;28;20681;-64
2020/12/30 09:59:54;;;;;;;8.33;2.40;;;5.60;99.90;;;;;;5017728;28;20205;-62
2020/12/30 10:02:21;;;;;;;4.03;2.53;;;5.70;99.90;;;;;;5017364;28;20211;-63
2020/12/30 10:04:48;;;;;;;5.80;2.50;;;5.70;99.90;;;;;;5018905;28;20220;-63
2020/12/30 10:07:14;;;;;;;4.67;2.20;;;5.70;99.90;;;;;;5017582;28;20197;-65
2020/12/30 10:09:41;;;;;;;5.73;2.53;;;5.70;99.90;;;;;;5018266;28;20208;-63
2020/12/30 10:12:08;;;;;;;3.27;2.40;;;5.80;99.90;;;;;;5017097;28;20215;-63
2020/12/30 10:14:34;;;;;;;5.97;2.70;;;5.80;99.90;;;;;;5016002;28;20196;-62
2020/12/30 10:17:00;;;;;;;8.07;2.33;;;5.80;99.90;;;;;;5016865;28;20287;-63
2020/12/30 10:19:28;;;;;;;2.70;2.23;;;5.90;99.90;;;;;;5018315;28;20413;-63
2020/12/30 10:21:54;;;;;;;4.90;2.40;;;5.90;99.90;;;;;;5019607;28;20259;-63
2020/12/30 10:24:21;;;;;;;3.70;2.30;;;6.00;99.90;;;;;;5018056;28;20247;-64
2020/12/30 10:26:47;;;;;;;5.13;2.13;;;6.10;99.90;;;;;;5017558;28;20232;-64
2020/12/30 10:29:14;;;;;;;5.33;2.33;;;6.10;99.90;;;;;;5017412;28;20203;-67
2020/12/30 10:31:40;;;;;;;3.50;2.30;;;6.10;99.90;;;;;;5013741;28;20211;-65
2020/12/30 10:34:07;;;;;;;3.37;2.10;;;6.20;99.90;;;;;;5010942;28;20231;-65
2020/12/30 10:36:34;;;;;;;2.20;2.00;;;6.30;99.90;;;;;;5010416;28;20215;-64
2020/12/30 10:39:01;;;;;;;3.27;2.00;;;6.30;99.90;;;;;;5009647;28;20555;-65
2020/12/30 10:41:29;;;;;;;3.70;1.90;;;6.40;99.90;;;;;;5018106;28;20200;-65
2020/12/30 10:43:56;;;;;;;1.97;1.60;;;6.40;99.90;;;;;;5016745;28;20192;-63
2020/12/30 10:46:22;;;;;;;5.23;1.97;;;6.40;99.90;;;;;;5012306;28;20224;-66
2020/12/30 10:48:49;;;;;;;4.63;2.10;;;6.40;99.90;;;;;;5008176;28;20204;-62
2020/12/30 10:51:17;;;;;;;2.30;2.03;;;6.40;99.90;;;;;;5007666;28;20203;-66
2020/12/30 10:53:44;;;;;;;3.37;1.90;;;6.50;99.90;;;;;;5015400;28;20255;-64
2020/12/30 10:56:13;;;;;;;2.50;2.10;;;6.60;99.90;;;;;;5016407;28;20215;-64
2020/12/30 10:58:40;;;;;;;4.30;2.77;;;6.70;99.90;;;;;;5019320;28;20197;-65
2020/12/30 11:01:07;;;;;;;5.47;2.37;;;6.70;99.90;;;;;;5020787;28;20743;-64
2020/12/30 11:03:34;;;;;;;4.30;2.53;;;6.80;99.90;;;;;;5018413;28;20224;-65
2020/12/30 11:06:00;;;;;;;4.53;2.50;;;6.90;99.90;;;;;;5021513;28;20589;-65
2020/12/30 11:08:28;;;;;;;3.00;2.40;;;7.00;99.90;;;;;;5021464;28;20200;-65
2020/12/30 11:10:57;;;;;;;4.33;2.47;;;7.00;99.90;;;;;;5020632;28;20320;-64
2020/12/30 11:13:24;;;;;;;4.67;2.90;;;7.10;99.90;;;;;;5018939;28;20238;-65
2020/12/30 11:15:51;;;;;;;3.93;3.03;;;7.20;99.90;;;;;;5019836;28;20215;-65
2020/12/30 11:18:17;;;;;;;2.13;1.70;;;7.20;99.90;;;;;;5016666;28;20215;-65
2020/12/30 11:20:44;;;;;;;7.23;2.30;;;7.20;99.90;;;;;;5024278;28;20291;-65
2020/12/30 11:23:11;;;;;;;3.30;1.80;;;7.20;99.90;;;;;;5022646;28;20550;-64
2020/12/30 11:25:37;;;;;;;6.40;2.07;;;7.20;99.90;;;;;;5020255;28;20245;-76
2020/12/30 11:28:05;;;;;;;2.97;1.80;;;7.20;99.90;;;;;;5026200;28;20204;-65
2020/12/30 11:30:31;;;;;;;5.73;1.87;;;7.20;99.90;;;;;;5020383;28;20649;-65
2020/12/30 11:32:58;;;;;;;2.93;1.70;;;7.20;99.90;;;;;;5019269;28;20228;-65
2020/12/30 11:35:25;;;;;;;2.07;1.67;;;7.10;99.90;;;;;;5023912;28;20204;-65
2020/12/30 11:37:52;;;;;;;2.37;1.60;;;7.10;99.90;;;;;;5020331;28;20200;-65
2020/12/30 11:40:19;;;;;;;2.93;1.90;;;7.00;99.90;;;;;;5021651;28;20231;-65
2020/12/30 11:42:45;;;;;;;3.17;1.93;;;7.00;99.90;;;;;;5024328;28;20661;-65
2020/12/30 11:45:13;;;;;;;3.83;1.90;;;7.00;99.90;;;;;;5019824;28;20228;-65
2020/12/30 11:47:39;;;;;;;6.23;1.90;;;7.00;99.90;;;;;;5015885;28;20204;-65
2020/12/30 11:50:07;;;;;;;2.60;1.57;;;7.00;99.90;;;;;;5017795;28;20216;-65
2020/12/30 11:52:33;;;;;;;2.70;1.60;;;7.00;99.90;;;;;;5016566;28;20674;-65
2020/12/30 11:55:00;;;;;;;3.17;1.40;;;7.00;99.90;;;;;;5019200;28;20259;-65
2020/12/30 11:57:28;;;;;;;2.43;1.60;;;7.00;99.90;;;;;;5025570;28;20203;-63
2020/12/30 11:59:55;;;;;;;4.37;1.40;;;7.10;99.90;;;;;;5015842;28;20229;-64
2020/12/30 12:02:22;;;;;;;2.30;1.40;;;7.20;99.90;;;;;;5016071;28;20246;-65
2020/12/30 12:04:49;;;;;;;1.17;1.07;;;7.30;99.90;;;;;;5020413;28;20229;-65
2020/12/30 12:07:15;;;;;;;6.20;1.47;;;7.40;99.90;;;;;;5018213;28;20204;-71
2020/12/30 12:09:42;;;;;;;1.60;1.17;;;7.50;99.90;;;;;;5017511;28;20208;-65
2020/12/30 12:12:08;;;;;;;4.83;1.50;;;7.70;99.90;;;;;;5022882;28;20208;-64
2020/12/30 12:14:35;;;;;;;2.80;1.30;;;8.00;99.90;;;;;;5021769;28;20204;-64
2020/12/30 12:17:01;;;;;;;2.53;1.40;;;8.20;99.90;;;;;;5019402;28;20211;-64
2020/12/30 12:19:29;;;;;;;2.20;1.30;;;8.20;99.90;;;;;;5017672;28;20205;-64
2020/12/30 12:21:55;;;;;;;4.93;1.30;;;8.10;99.90;;;;;;5017703;28;20218;-64
2020/12/30 12:24:22;;;;;;;2.67;1.40;;;8.20;99.90;;;;;;5016535;28;20197;-65
2020/12/30 12:26:49;;;;;;;1.50;1.40;;;8.10;99.90;;;;;;5017456;28;20243;-63
2020/12/30 12:29:43;;;;;;;6.37;1.70;;;7.90;99.90;;;;;;5016788;28;20214;-64
2020/12/30 12:32:11;;;;;;;5.07;1.57;;;7.90;99.90;;;;;;5017423;28;20209;-64
2020/12/30 12:34:40;;;;;;;2.57;1.57;;;8.00;99.90;;;;;;5017885;28;20209;-64
2020/12/30 12:37:08;;;;;;;5.37;2.10;;;7.90;99.90;;;;;;5016510;28;20596;-64
2020/12/30 12:39:35;;;;;;;2.60;1.80;;;7.80;99.90;;;;;;5015415;28;20196;-64
2020/12/30 12:42:02;;;;;;;2.27;1.50;;;7.60;99.90;;;;;;5015734;28;20205;-64
2020/12/30 12:44:29;;;;;;;2.87;2.07;;;7.50;99.90;;;;;;5025711;28;20254;-63
2020/12/30 12:46:56;;;;;;;3.17;1.60;;;7.40;99.90;;;;;;5023476;28;20208;-64
2020/12/30 12:49:23;;;;;;;2.50;1.73;;;7.30;99.90;;;;;;5024023;28;20204;-64
2020/12/30 12:51:51;;;;;;;5.07;1.53;;;7.20;99.90;;;;;;5027153;28;20580;-64
2020/12/30 12:54:18;;;;;;;4.13;1.77;;;7.10;99.90;;;;;;5022363;28;20212;-65